KGLE/GLE METAR and TAF weather

Enter ICAO airport designator
Station Type Date Time Source
KGLE METAR 2022/06/27 17:35 UTC NOAA

KGLE 271735Z AUTO 01007KT 10SM BKN060 OVC075 28/17 A3025 RMK AO2 T02800173


Station Type Date Time Source
KGLE Decoded METAR 2022/06/27 17:35 UTC NOAA

Gainesville, Gainesville Municipal Airport, TX, United States (KGLE) 33-39-05N 097-11-49W
Jun 27, 2022 - 01:35 PM EDT / 2022.06.27 1735 UTC
Wind: from the N (010 degrees) at 8 MPH (7 KT):0
Visibility: 10 mile(s):0
Sky conditions: overcast
Temperature: 82.4 F (28.0 C)
Dew Point: 63.1 F (17.3 C)
Relative Humidity: 52%
Pressure (altimeter): 30.25 in. Hg (1024 hPa)
ob: KGLE 271735Z AUTO 01007KT 10SM BKN060 OVC075 28/17 A3025 RMK AO2 T02800173
cycle: 17

Station Type Date Time Source
KGLE TAF UTC NOAA

Error!

Example: see airport list